createdAt,value
2022-11-02T00:04:40.047Z,101132.06
2022-11-02T00:09:41.539Z,101116.03
2022-11-02T00:14:43.029Z,101132.47
2022-11-02T00:19:44.812Z,101118.25
2022-11-02T00:24:46.487Z,101121.56
2022-11-02T00:29:48.108Z,101136.13
2022-11-02T00:34:49.634Z,101130.75
2022-11-02T00:39:51.201Z,101107.97
2022-11-02T00:44:52.770Z,101123.94
2022-11-02T00:49:54.515Z,101119.88
2022-11-02T00:54:56.176Z,101130.78
2022-11-02T00:59:57.849Z,101128.72
2022-11-02T01:04:59.493Z,101126.00
2022-11-02T01:10:01.689Z,101121.16
2022-11-02T01:15:03.796Z,101128.88
2022-11-02T01:20:06.061Z,101132.75
2022-11-02T01:25:08.066Z,101147.59
2022-11-02T01:30:10.339Z,101131.97
2022-11-02T01:35:11.940Z,101135.06
2022-11-02T01:40:13.568Z,101140.75
2022-11-02T01:45:15.432Z,101136.91
2022-11-02T01:50:27.712Z,101122.59
2022-11-02T01:55:34.569Z,101121.69
2022-11-02T02:00:36.249Z,101117.75
2022-11-02T02:05:45.380Z,101108.31
2022-11-02T02:10:56.880Z,101108.69
2022-11-02T02:16:20.996Z,101108.31
2022-11-02T02:22:06.091Z,101101.06
2022-11-02T02:27:18.290Z,101114.09
2022-11-02T02:32:36.443Z,101111.53
2022-11-02T02:38:01.916Z,101126.59
2022-11-02T02:43:13.071Z,101120.63
2022-11-02T02:48:19.316Z,101123.63
2022-11-02T02:53:35.947Z,101122.84
2022-11-02T02:58:45.993Z,101119.13
2022-11-02T03:03:47.808Z,101115.84
2022-11-02T03:09:02.231Z,101116.94
2022-11-02T03:14:17.049Z,101123.06
2022-11-02T03:19:37.389Z,101127.22
2022-11-02T03:24:52.966Z,101134.47
2022-11-02T03:30:06.546Z,101137.28
2022-11-02T03:35:18.962Z,101152.13
2022-11-02T03:40:32.267Z,101158.72
2022-11-02T03:45:41.616Z,101161.44
2022-11-02T03:50:50.194Z,101165.09
2022-11-02T03:56:00.126Z,101157.84
2022-11-02T04:01:07.122Z,101161.91
2022-11-02T04:06:09.819Z,101172.50
2022-11-02T04:11:12.183Z,101176.06
2022-11-02T04:16:16.819Z,101195.00
2022-11-02T04:21:18.499Z,101203.41
2022-11-02T04:26:20.527Z,101206.59
2022-11-02T04:31:22.548Z,101215.91
2022-11-02T04:36:24.319Z,101226.63
2022-11-02T04:41:30.120Z,101231.53
2022-11-02T04:46:35.011Z,101239.63
2022-11-02T04:51:39.381Z,101245.69
2022-11-02T04:56:42.920Z,101241.84
2022-11-02T05:01:45.996Z,101253.72
2022-11-02T05:06:49.467Z,101256.59
2022-11-02T05:11:52.576Z,101261.81
2022-11-02T05:16:54.467Z,101268.38
2022-11-02T05:21:56.168Z,101278.44
2022-11-02T05:26:59.708Z,101283.31
2022-11-02T05:32:02.090Z,101286.44
2022-11-02T05:37:03.767Z,101287.31
2022-11-02T05:42:05.566Z,101291.84
2022-11-02T05:47:07.249Z,101288.94
2022-11-02T05:52:08.791Z,101306.19
2022-11-02T05:57:10.575Z,101310.03
2022-11-02T06:02:12.077Z,101320.03
2022-11-02T06:07:13.641Z,101330.50
2022-11-02T06:12:15.159Z,101337.88
2022-11-02T06:17:16.812Z,101335.91
2022-11-02T06:22:18.358Z,101353.09
2022-11-02T06:27:19.908Z,101361.31
2022-11-02T06:32:22.644Z,101369.97
2022-11-02T06:37:24.150Z,101374.59
2022-11-02T06:42:25.806Z,101379.50
2022-11-02T06:47:30.303Z,101390.16
2022-11-02T06:52:32.261Z,101405.69
2022-11-02T06:57:38.893Z,101406.94
2022-11-02T07:02:40.447Z,101423.75
2022-11-02T07:07:41.941Z,101434.28
2022-11-02T07:12:43.603Z,101437.84
2022-11-02T07:17:45.525Z,101443.00
2022-11-02T07:22:55.914Z,101456.63
2022-11-02T07:27:58.305Z,101467.56
2022-11-02T07:33:00.419Z,101472.19
2022-11-02T07:38:04.506Z,101480.47
2022-11-02T07:43:07.490Z,101491.25
2022-11-02T07:48:32.183Z,101497.88
2022-11-02T07:53:34.298Z,101514.75
2022-11-02T07:58:38.530Z,101521.22
2022-11-02T08:03:40.353Z,101520.81
2022-11-02T08:08:41.944Z,101523.44
2022-11-02T08:13:43.433Z,101538.63
2022-11-02T08:18:44.997Z,101539.97
2022-11-02T08:23:48.975Z,101546.84
2022-11-02T08:28:50.877Z,101565.06
2022-11-02T08:33:52.478Z,101565.28
2022-11-02T08:38:54.012Z,101560.38
2022-11-02T08:43:55.561Z,101549.13
2022-11-02T08:48:57.140Z,101555.28
2022-11-02T08:53:58.807Z,101560.78
2022-11-02T08:59:00.366Z,101570.41
2022-11-02T09:04:01.946Z,101575.06
2022-11-02T09:09:03.627Z,101571.41
2022-11-02T09:14:05.284Z,101577.09
2022-11-02T09:19:06.841Z,101586.84
2022-11-02T09:24:08.800Z,101591.50
2022-11-02T09:29:10.472Z,101579.97
2022-11-02T09:34:12.173Z,101589.31
2022-11-02T09:39:13.713Z,101596.28
2022-11-02T09:44:25.585Z,101601.53
2022-11-02T09:49:29.824Z,101597.88
2022-11-02T09:54:36.755Z,101604.59
2022-11-02T09:59:38.309Z,101605.56
2022-11-02T10:04:55.037Z,101608.88
2022-11-02T10:10:03.743Z,101625.28
2022-11-02T10:15:22.511Z,101618.63
2022-11-02T10:20:38.864Z,101626.72
2022-11-02T10:25:40.737Z,101627.53
2022-11-02T10:30:44.474Z,101618.97
2022-11-02T10:36:16.831Z,101612.31
2022-11-02T10:41:22.261Z,101617.09
2022-11-02T10:46:53.944Z,101618.47
2022-11-02T10:51:55.572Z,101613.59
2022-11-02T10:56:58.925Z,101625.47
2022-11-02T11:02:00.488Z,101624.25
2022-11-02T11:07:16.711Z,101618.59
2022-11-02T11:12:37.500Z,101611.19
2022-11-02T11:23:22.235Z,101607.88
2022-11-02T11:28:29.878Z,101612.25
2022-11-02T11:33:32.365Z,101612.25
2022-11-02T11:38:33.929Z,101616.38
2022-11-02T11:43:37.093Z,101615.34
2022-11-02T11:48:53.533Z,101608.97
2022-11-02T11:54:22.548Z,101590.66
2022-11-02T11:59:26.796Z,101594.09
2022-11-02T12:04:31.173Z,101598.44
2022-11-02T12:09:57.016Z,101593.44
2022-11-02T12:15:06.979Z,101580.03
2022-11-02T12:20:41.013Z,101571.06
2022-11-02T12:26:10.152Z,101573.97
2022-11-02T12:31:11.633Z,101576.09
2022-11-02T12:36:16.005Z,101570.72
2022-11-02T12:41:43.164Z,101562.66
2022-11-02T12:46:58.440Z,101556.81
2022-11-02T12:52:11.765Z,101551.91
2022-11-02T12:57:17.786Z,101544.59
2022-11-02T13:02:21.517Z,101545.06
2022-11-02T13:07:29.763Z,101551.38
2022-11-02T13:12:34.063Z,101541.59
2022-11-02T13:17:40.920Z,101538.78
2022-11-02T13:22:44.061Z,101540.09
2022-11-02T13:28:05.741Z,101547.03
2022-11-02T13:33:23.638Z,101539.69
2022-11-02T13:38:34.801Z,101537.28
2022-11-02T13:43:42.047Z,101528.31
2022-11-02T13:49:04.256Z,101533.28
2022-11-02T13:54:43.933Z,101525.06
2022-11-02T13:59:45.646Z,101523.94
2022-11-02T14:04:47.751Z,101519.00
2022-11-02T14:09:49.984Z,101516.31
2022-11-02T14:15:13.087Z,101522.25
2022-11-02T14:20:32.968Z,101510.81
2022-11-02T14:25:55.941Z,101513.59
2022-11-02T14:31:03.272Z,101514.31
2022-11-02T14:36:19.113Z,101508.06
2022-11-02T14:41:58.048Z,101507.44
2022-11-02T14:47:15.355Z,101513.91
2022-11-02T14:52:33.039Z,101493.91
2022-11-02T14:57:40.714Z,101502.34
2022-11-02T15:02:43.560Z,101493.66
2022-11-02T15:07:52.107Z,101481.34
2022-11-02T15:13:19.114Z,101481.41
2022-11-02T15:18:22.869Z,101480.63
2022-11-02T15:23:31.694Z,101467.34
2022-11-02T15:28:34.785Z,101467.94
2022-11-02T15:33:45.574Z,101461.47
2022-11-02T15:38:49.676Z,101456.47
2022-11-02T15:44:09.628Z,101463.47
2022-11-02T15:49:23.279Z,101473.97
2022-11-02T15:54:46.443Z,101471.09
2022-11-02T15:59:56.872Z,101471.25
2022-11-02T16:05:01.552Z,101479.09
2022-11-02T16:10:33.798Z,101481.09
2022-11-02T16:15:35.724Z,101468.53
2022-11-02T16:20:37.791Z,101470.47
2022-11-02T16:25:43.268Z,101463.41
2022-11-02T16:31:00.375Z,101461.63
2022-11-02T16:36:02.273Z,101462.16
2022-11-02T16:41:08.034Z,101467.13
2022-11-02T16:46:09.667Z,101468.03
2022-11-02T16:51:20.564Z,101476.31
2022-11-02T16:56:30.114Z,101476.16
2022-11-02T17:01:40.308Z,101478.56
2022-11-02T17:06:42.556Z,101469.53
2022-11-02T17:11:44.420Z,101475.31
2022-11-02T17:17:25.492Z,101471.19
2022-11-02T17:22:28.936Z,101470.47
2022-11-02T17:27:31.946Z,101465.88
2022-11-02T17:32:33.494Z,101471.72
2022-11-02T17:37:35.120Z,101474.53
2022-11-02T17:42:36.692Z,101470.41
2022-11-02T17:47:38.233Z,101466.13
2022-11-02T17:52:40.732Z,101463.34
2022-11-02T17:57:42.271Z,101468.28
2022-11-02T18:02:47.762Z,101458.28
2022-11-02T18:07:49.749Z,101457.16
2022-11-02T18:12:51.391Z,101454.84
2022-11-02T18:17:53.106Z,101446.97
2022-11-02T18:22:55.666Z,101445.69
2022-11-02T18:27:58.614Z,101439.78
2022-11-02T18:33:01.196Z,101443.19
2022-11-02T18:38:03.168Z,101428.63
2022-11-02T18:43:05.494Z,101424.88
2022-11-02T18:48:07.463Z,101418.81
2022-11-02T18:53:10.007Z,101419.09
2022-11-02T18:58:11.604Z,101415.03
2022-11-02T19:03:13.323Z,101408.00
2022-11-02T19:08:14.824Z,101404.38
2022-11-02T19:13:16.340Z,101411.41
2022-11-02T19:18:17.867Z,101406.84
2022-11-02T19:23:19.450Z,101401.06
2022-11-02T19:28:20.940Z,101403.50
2022-11-02T19:33:22.463Z,101401.19
2022-11-02T19:38:24.747Z,101390.22
2022-11-02T19:43:26.302Z,101384.50
2022-11-02T19:48:29.387Z,101372.88
2022-11-02T19:53:30.919Z,101366.50
2022-11-02T19:58:32.731Z,101367.97
2022-11-02T20:03:35.027Z,101353.56
2022-11-02T20:08:36.696Z,101341.28
2022-11-02T20:13:40.834Z,101331.81
2022-11-02T20:18:43.984Z,101336.41
2022-11-02T20:23:45.792Z,101332.94
2022-11-02T20:28:48.266Z,101337.03
2022-11-02T20:33:49.917Z,101327.38
2022-11-02T20:38:51.866Z,101327.53
2022-11-02T20:43:54.772Z,101318.06
2022-11-02T20:48:56.932Z,101315.47
2022-11-02T20:53:58.580Z,101314.78
2022-11-02T20:59:00.180Z,101304.94
2022-11-02T21:04:01.820Z,101310.84
2022-11-02T21:09:05.064Z,101303.31
2022-11-02T21:14:09.299Z,101293.81
2022-11-02T21:19:10.894Z,101298.88
2022-11-02T21:24:12.584Z,101300.03
2022-11-02T21:29:14.129Z,101290.03
2022-11-02T21:34:15.941Z,101284.47
2022-11-02T21:39:17.542Z,101285.44
2022-11-02T21:44:19.037Z,101276.25
2022-11-02T21:49:20.668Z,101282.78
2022-11-02T21:54:22.166Z,101277.03
2022-11-02T21:59:23.671Z,101273.34
2022-11-02T22:04:26.895Z,101270.91
2022-11-02T22:09:28.565Z,101251.91
2022-11-02T22:14:30.065Z,101246.38
2022-11-02T22:19:31.878Z,101234.75
2022-11-02T22:24:33.594Z,101240.47
2022-11-02T22:29:35.296Z,101233.94
2022-11-02T22:34:36.875Z,101228.06
2022-11-02T22:39:38.479Z,101220.19
2022-11-02T22:44:40.040Z,101220.69
2022-11-02T22:49:41.602Z,101203.53
2022-11-02T22:54:43.157Z,101205.31
2022-11-02T22:59:44.689Z,101201.72
2022-11-02T23:04:46.210Z,101195.34
2022-11-02T23:09:47.783Z,101181.91
2022-11-02T23:14:49.282Z,101165.09
2022-11-02T23:19:50.882Z,101172.91
2022-11-02T23:24:54.532Z,101157.38
2022-11-02T23:29:56.204Z,101151.66
2022-11-02T23:34:58.882Z,101146.75
2022-11-02T23:40:00.449Z,101138.09
2022-11-02T23:45:02.095Z,101138.59
2022-11-02T23:50:03.804Z,101154.97
2022-11-02T23:55:05.627Z,101147.75
